createdAt,value
2023-06-15T00:02:19.983Z,9.00
2023-06-15T00:04:47.192Z,8.90
2023-06-15T00:07:14.524Z,10.00
2023-06-15T00:09:41.720Z,8.80
2023-06-15T00:12:10.663Z,8.80
2023-06-15T00:14:37.999Z,9.60
2023-06-15T00:17:05.343Z,10.30
2023-06-15T00:19:32.470Z,9.30
2023-06-15T00:22:00.186Z,8.40
2023-06-15T00:24:27.585Z,9.40
2023-06-15T00:26:54.893Z,10.80
2023-06-15T00:29:22.048Z,11.90
2023-06-15T00:31:49.270Z,9.40
2023-06-15T00:34:16.453Z,9.90
2023-06-15T00:36:43.683Z,11.10
2023-06-15T00:39:10.872Z,11.10
2023-06-15T00:41:44.151Z,10.40
2023-06-15T00:44:11.550Z,11.10
2023-06-15T00:46:39.240Z,9.90
2023-06-15T00:49:06.533Z,10.90
2023-06-15T00:51:35.686Z,10.30
2023-06-15T00:54:03.755Z,11.70
2023-06-15T00:56:31.132Z,10.30
2023-06-15T00:58:58.398Z,11.10
2023-06-15T01:01:27.512Z,10.00
2023-06-15T01:03:55.803Z,10.80
2023-06-15T01:06:26.038Z,11.00
2023-06-15T01:08:58.359Z,10.60
2023-06-15T01:11:25.558Z,9.80
2023-06-15T01:13:52.783Z,11.10
2023-06-15T01:16:31.863Z,9.70
2023-06-15T01:19:00.174Z,9.90
2023-06-15T01:21:28.233Z,10.70
2023-06-15T01:24:06.754Z,10.40
2023-06-15T01:26:35.520Z,10.90
2023-06-15T01:29:02.769Z,10.40
2023-06-15T01:31:30.073Z,10.10
2023-06-15T01:33:58.860Z,11.30
2023-06-15T01:36:26.008Z,10.10
2023-06-15T01:38:55.853Z,10.80
2023-06-15T01:41:24.426Z,9.60
2023-06-15T01:43:51.572Z,11.70
2023-06-15T01:46:18.799Z,11.50
2023-06-15T01:48:46.150Z,10.40
2023-06-15T01:51:13.550Z,10.30
2023-06-15T01:53:43.819Z,10.40
2023-06-15T01:56:11.233Z,10.50
2023-06-15T01:58:39.215Z,10.20
2023-06-15T02:01:06.462Z,10.90
2023-06-15T02:03:33.821Z,10.50
2023-06-15T02:06:01.138Z,10.40
2023-06-15T02:08:28.720Z,12.90
2023-06-15T02:10:56.062Z,10.90
2023-06-15T02:13:23.256Z,11.80
2023-06-15T02:15:50.920Z,11.30
2023-06-15T02:18:18.260Z,13.70
2023-06-15T02:22:53.964Z,11.20
2023-06-15T02:25:21.160Z,12.00
2023-06-15T02:27:48.331Z,10.90
2023-06-15T02:30:15.672Z,11.50
2023-06-15T02:32:43.421Z,12.90
2023-06-15T02:35:11.764Z,11.00
2023-06-15T02:37:39.617Z,10.70
2023-06-15T02:40:08.117Z,11.30
2023-06-15T02:42:36.238Z,11.20
2023-06-15T02:45:04.317Z,11.90
2023-06-15T02:47:31.980Z,13.20
2023-06-15T02:50:00.531Z,11.60
2023-06-15T02:52:27.928Z,10.90
2023-06-15T02:54:55.189Z,12.00
2023-06-15T02:57:22.959Z,11.60
2023-06-15T03:00:09.724Z,14.30
2023-06-15T03:02:38.687Z,12.40
2023-06-15T03:05:06.124Z,13.00
2023-06-15T03:07:42.725Z,13.10
2023-06-15T03:10:19.836Z,12.30
2023-06-15T03:12:47.222Z,12.00
2023-06-15T03:15:14.727Z,15.10
2023-06-15T03:17:42.767Z,12.90
2023-06-15T03:20:12.171Z,15.90
2023-06-15T03:22:41.037Z,14.70
2023-06-15T03:25:13.858Z,14.50
2023-06-15T03:27:44.159Z,15.30
2023-06-15T03:30:15.102Z,13.80
2023-06-15T03:32:42.980Z,15.10
2023-06-15T03:35:11.348Z,14.30
2023-06-15T03:37:39.009Z,15.40
2023-06-15T03:40:06.952Z,16.30
2023-06-15T03:42:34.197Z,14.20
2023-06-15T03:45:02.182Z,14.40
2023-06-15T03:47:29.926Z,15.50
2023-06-15T03:49:57.332Z,16.30
2023-06-15T03:52:26.557Z,17.40
2023-06-15T03:54:54.603Z,14.70
2023-06-15T03:57:22.058Z,16.20
2023-06-15T03:59:49.310Z,16.40
2023-06-15T04:02:16.651Z,16.70
2023-06-15T04:04:43.909Z,14.70
2023-06-15T04:07:11.133Z,15.80
2023-06-15T04:09:40.050Z,17.40
2023-06-15T04:12:07.709Z,15.20
2023-06-15T04:14:35.663Z,14.70
2023-06-15T04:17:03.916Z,14.80
2023-06-15T04:19:31.254Z,15.80
2023-06-15T04:21:58.503Z,15.80
2023-06-15T04:24:25.751Z,15.60
2023-06-15T04:26:53.029Z,16.60
2023-06-15T04:29:20.202Z,15.00
2023-06-15T04:31:53.389Z,13.60
2023-06-15T04:34:21.062Z,14.80
2023-06-15T04:36:49.947Z,16.60
2023-06-15T04:39:17.978Z,13.30
2023-06-15T04:41:46.017Z,11.60
2023-06-15T04:44:14.340Z,12.90
2023-06-15T04:46:43.019Z,13.60
2023-06-15T04:49:10.820Z,12.50
2023-06-15T04:51:39.756Z,12.90
2023-06-15T04:54:07.806Z,12.10
2023-06-15T04:56:35.310Z,11.10
2023-06-15T04:59:02.558Z,10.60
2023-06-15T05:01:29.855Z,10.70
2023-06-15T05:03:59.544Z,10.60
2023-06-15T05:06:27.347Z,11.10
2023-06-15T05:08:56.070Z,7.90
2023-06-15T05:11:23.867Z,7.50
2023-06-15T05:13:51.127Z,9.20
2023-06-15T05:16:20.876Z,8.20
2023-06-15T05:18:48.280Z,8.00
2023-06-15T05:21:15.975Z,12.00
2023-06-15T05:23:43.514Z,9.50
2023-06-15T05:26:29.110Z,6.20
2023-06-15T05:28:57.497Z,6.60
2023-06-15T05:31:25.402Z,8.30
2023-06-15T05:33:53.186Z,7.20
2023-06-15T05:36:34.053Z,6.10
2023-06-15T05:39:07.453Z,6.90
2023-06-15T05:41:35.190Z,7.70
2023-06-15T05:44:03.090Z,9.50
2023-06-15T05:46:30.443Z,6.40
2023-06-15T05:48:58.007Z,5.60
2023-06-15T05:51:25.296Z,5.70
2023-06-15T05:53:52.805Z,7.80
2023-06-15T05:56:19.955Z,6.40
2023-06-15T05:58:47.098Z,6.10
2023-06-15T06:01:14.368Z,5.50
2023-06-15T06:03:41.546Z,4.80
2023-06-15T06:06:08.765Z,6.20
2023-06-15T06:08:36.348Z,5.80
2023-06-15T06:11:08.824Z,6.00
2023-06-15T06:13:41.422Z,5.80
2023-06-15T06:16:08.758Z,5.10
2023-06-15T06:18:36.445Z,6.40
2023-06-15T06:21:03.707Z,7.50
2023-06-15T06:23:33.191Z,5.40
2023-06-15T06:26:00.738Z,5.60
2023-06-15T06:28:27.968Z,5.60
2023-06-15T06:30:55.080Z,5.70
2023-06-15T06:33:22.240Z,4.90
2023-06-15T06:35:49.411Z,5.50
2023-06-15T06:38:17.503Z,4.90
2023-06-15T06:40:44.642Z,5.80
2023-06-15T06:43:11.970Z,7.50
2023-06-15T06:45:39.138Z,5.10
2023-06-15T06:48:06.720Z,5.50
2023-06-15T06:50:34.028Z,5.90
2023-06-15T06:53:01.184Z,5.50
2023-06-15T06:55:28.368Z,5.70
2023-06-15T06:57:55.728Z,4.90
2023-06-15T07:00:22.959Z,5.10
2023-06-15T07:02:50.494Z,4.40
2023-06-15T07:05:17.976Z,4.40
2023-06-15T07:07:45.466Z,4.10
2023-06-15T07:10:12.759Z,4.60
2023-06-15T07:12:40.435Z,6.30
2023-06-15T07:15:08.085Z,6.10
2023-06-15T07:17:35.526Z,5.00
2023-06-15T07:20:03.547Z,4.40
2023-06-15T07:22:30.801Z,5.10
2023-06-15T07:24:58.179Z,5.10
2023-06-15T07:27:25.382Z,6.30
2023-06-15T07:29:52.528Z,6.60
2023-06-15T07:32:19.818Z,6.30
2023-06-15T07:34:47.071Z,5.30
2023-06-15T07:37:14.800Z,6.10
2023-06-15T07:39:42.093Z,4.70
2023-06-15T07:42:09.656Z,6.20
2023-06-15T07:44:36.945Z,5.20
2023-06-15T07:47:04.418Z,5.50
2023-06-15T07:49:44.785Z,5.00
2023-06-15T07:52:13.960Z,7.10
2023-06-15T07:54:42.756Z,5.40
2023-06-15T07:57:10.098Z,4.90
2023-06-15T07:59:37.221Z,4.80
2023-06-15T08:02:04.667Z,5.00
2023-06-15T08:04:31.841Z,5.80
2023-06-15T08:06:58.949Z,5.80
2023-06-15T08:09:26.308Z,5.90
2023-06-15T08:11:53.457Z,5.60
2023-06-15T08:14:20.612Z,4.70
2023-06-15T08:16:48.640Z,4.30
2023-06-15T08:19:16.185Z,5.00
2023-06-15T08:21:43.374Z,5.20
2023-06-15T08:24:10.772Z,5.20
2023-06-15T08:26:38.058Z,5.30
2023-06-15T08:29:18.627Z,4.80
2023-06-15T08:31:50.414Z,4.40
2023-06-15T08:34:17.551Z,4.60
2023-06-15T08:36:44.693Z,6.90
2023-06-15T08:39:11.958Z,5.90
2023-06-15T08:41:39.168Z,4.80
2023-06-15T08:44:06.738Z,6.20
2023-06-15T08:46:34.135Z,4.70
2023-06-15T08:49:01.521Z,6.20
2023-06-15T08:51:28.814Z,5.00
2023-06-15T08:53:56.232Z,5.80
2023-06-15T08:56:23.553Z,5.40
2023-06-15T08:58:51.219Z,6.00
2023-06-15T09:01:23.739Z,5.50
2023-06-15T09:03:52.074Z,5.70
2023-06-15T09:06:22.749Z,5.10
2023-06-15T09:08:50.279Z,6.10
2023-06-15T09:11:17.921Z,5.70
2023-06-15T09:13:46.254Z,6.70
2023-06-15T09:16:13.967Z,6.90
2023-06-15T09:18:46.154Z,6.10
2023-06-15T09:21:17.783Z,21.10
2023-06-15T09:23:46.984Z,11.10
2023-06-15T09:26:24.430Z,6.70
2023-06-15T09:28:55.994Z,7.80
2023-06-15T09:31:33.590Z,4.80
2023-06-15T09:34:14.138Z,4.80
2023-06-15T09:36:46.343Z,5.70
2023-06-15T09:39:14.862Z,7.00
2023-06-15T09:41:55.144Z,6.40
2023-06-15T09:44:22.857Z,9.10
2023-06-15T09:46:54.248Z,5.50
2023-06-15T09:49:23.826Z,6.10
2023-06-15T09:51:54.048Z,5.50
2023-06-15T09:54:23.016Z,6.40
2023-06-15T09:56:51.826Z,5.00
2023-06-15T09:59:19.727Z,6.50
2023-06-15T10:01:51.288Z,5.50
2023-06-15T10:04:21.964Z,5.00
2023-06-15T10:06:51.734Z,5.70
2023-06-15T10:09:26.180Z,5.10
2023-06-15T10:11:53.864Z,6.50
2023-06-15T10:14:24.694Z,5.00
2023-06-15T10:16:54.828Z,7.00
2023-06-15T10:19:22.757Z,6.10
2023-06-15T10:21:49.898Z,4.80
2023-06-15T10:24:17.621Z,6.40
2023-06-15T10:26:45.277Z,5.70
2023-06-15T10:29:44.945Z,6.40
2023-06-15T10:32:14.565Z,5.60
2023-06-15T10:34:46.424Z,7.50
2023-06-15T10:37:26.939Z,5.00
2023-06-15T10:39:54.098Z,6.70
2023-06-15T10:42:21.316Z,7.00
2023-06-15T10:44:48.465Z,6.00
2023-06-15T10:47:15.773Z,12.40
2023-06-15T10:49:51.451Z,5.90
2023-06-15T10:52:18.763Z,6.20
2023-06-15T10:54:46.554Z,5.50
2023-06-15T10:57:20.122Z,6.50
2023-06-15T10:59:54.454Z,7.60
2023-06-15T11:02:27.976Z,6.00
2023-06-15T11:05:09.823Z,6.30
2023-06-15T11:07:38.185Z,5.50
2023-06-15T11:10:27.731Z,6.00
2023-06-15T11:13:02.487Z,4.80
2023-06-15T11:15:34.583Z,5.50
2023-06-15T11:18:19.734Z,7.00
2023-06-15T11:20:53.531Z,7.10
2023-06-15T11:23:24.725Z,6.30
2023-06-15T11:25:55.308Z,6.60
2023-06-15T11:28:35.886Z,5.80
2023-06-15T11:33:37.650Z,7.90
2023-06-15T11:36:06.362Z,7.30
2023-06-15T11:38:33.684Z,6.90
2023-06-15T11:41:00.932Z,6.40
2023-06-15T11:43:35.659Z,6.20
2023-06-15T11:46:02.812Z,6.10
2023-06-15T11:48:30.568Z,5.70
2023-06-15T11:50:58.178Z,7.60
2023-06-15T11:53:25.599Z,5.60
2023-06-15T11:55:52.861Z,5.80
2023-06-15T11:58:20.161Z,5.00
2023-06-15T12:00:47.299Z,5.90
2023-06-15T12:03:14.603Z,6.50
2023-06-15T12:05:44.366Z,5.20
2023-06-15T12:08:13.100Z,6.50
2023-06-15T12:10:40.414Z,5.70
2023-06-15T12:13:14.274Z,5.60
2023-06-15T12:15:46.765Z,5.20
2023-06-15T12:20:41.164Z,5.60
2023-06-15T12:23:08.411Z,5.50
2023-06-15T12:25:48.305Z,6.50
2023-06-15T12:28:19.451Z,8.50
2023-06-15T12:30:48.348Z,5.20
2023-06-15T12:33:30.400Z,5.70
2023-06-15T12:35:59.072Z,6.00
2023-06-15T12:38:27.476Z,5.50
2023-06-15T12:40:55.278Z,5.70
2023-06-15T12:43:22.975Z,4.70
2023-06-15T12:45:51.618Z,5.00
2023-06-15T12:48:20.008Z,5.40
2023-06-15T12:50:47.208Z,6.30
2023-06-15T12:53:14.697Z,8.30
2023-06-15T12:55:42.854Z,7.40
2023-06-15T12:58:10.155Z,6.40
2023-06-15T13:00:37.432Z,4.60
2023-06-15T13:03:07.285Z,5.70
2023-06-15T13:05:35.599Z,5.80
2023-06-15T13:08:03.804Z,5.10
2023-06-15T13:10:31.775Z,5.10
2023-06-15T13:12:59.171Z,5.50
2023-06-15T13:15:27.254Z,5.60
2023-06-15T13:17:55.589Z,5.60
2023-06-15T13:20:23.277Z,6.20
2023-06-15T13:22:51.143Z,7.60
2023-06-15T13:25:19.695Z,6.80
2023-06-15T13:27:47.177Z,5.40
2023-06-15T13:30:15.084Z,5.30
2023-06-15T13:32:44.573Z,5.60
2023-06-15T13:35:11.970Z,31.40
2023-06-15T13:37:39.232Z,14.40
2023-06-15T13:40:14.682Z,7.20
2023-06-15T13:42:42.045Z,6.60
2023-06-15T13:45:10.648Z,15.90
2023-06-15T13:47:42.431Z,6.60
2023-06-15T13:50:12.578Z,6.60
2023-06-15T13:52:41.119Z,5.70
2023-06-15T13:55:09.080Z,5.10
2023-06-15T13:57:36.856Z,5.30
2023-06-15T14:00:04.568Z,5.60
2023-06-15T14:02:42.040Z,6.60
2023-06-15T14:05:10.552Z,7.10
2023-06-15T14:07:40.015Z,6.20
2023-06-15T14:10:08.071Z,7.20
2023-06-15T14:12:35.686Z,5.90
2023-06-15T14:15:03.711Z,6.50
2023-06-15T14:17:31.705Z,6.50
2023-06-15T14:19:58.992Z,6.10
2023-06-15T14:22:27.399Z,6.40
2023-06-15T14:24:54.581Z,6.60
2023-06-15T14:27:21.943Z,6.80
2023-06-15T14:29:49.096Z,7.00
2023-06-15T14:32:16.752Z,6.30
2023-06-15T14:34:45.135Z,6.20
2023-06-15T14:37:12.796Z,5.20
2023-06-15T14:40:46.621Z,6.60
2023-06-15T14:43:13.813Z,5.10
2023-06-15T14:45:41.487Z,6.00
2023-06-15T14:48:08.707Z,6.20
2023-06-15T14:50:35.982Z,6.00
2023-06-15T14:53:03.349Z,6.90
2023-06-15T14:55:30.674Z,5.60
2023-06-15T14:57:57.925Z,12.30
2023-06-15T15:00:25.054Z,5.70
2023-06-15T15:02:53.068Z,6.00
2023-06-15T15:05:20.371Z,5.00
2023-06-15T15:07:47.612Z,5.00
2023-06-15T15:10:15.042Z,7.40
2023-06-15T15:12:42.331Z,6.90
2023-06-15T15:15:10.118Z,6.50
2023-06-15T15:17:38.527Z,5.90
2023-06-15T15:20:07.946Z,6.90
2023-06-15T15:22:35.213Z,8.00
2023-06-15T15:25:02.565Z,5.50
2023-06-15T15:27:29.795Z,6.40
2023-06-15T15:29:57.018Z,8.40
2023-06-15T15:32:24.183Z,7.60
2023-06-15T15:34:51.737Z,6.20
2023-06-15T15:37:18.960Z,7.40
2023-06-15T15:39:47.352Z,6.90
2023-06-15T15:42:17.623Z,6.20
2023-06-15T15:44:45.139Z,7.20
2023-06-15T15:47:13.880Z,8.30
2023-06-15T15:49:41.119Z,7.10
2023-06-15T15:52:08.534Z,5.10
2023-06-15T15:54:35.938Z,6.50
2023-06-15T15:57:04.018Z,5.60
2023-06-15T15:59:31.450Z,6.90
2023-06-15T16:01:58.921Z,6.20
2023-06-15T16:04:26.324Z,11.10
2023-06-15T16:06:54.101Z,6.50
2023-06-15T16:09:21.319Z,5.60
2023-06-15T16:11:48.467Z,6.70
2023-06-15T16:14:15.792Z,6.00
2023-06-15T16:16:42.955Z,6.20
2023-06-15T16:19:10.196Z,7.50
2023-06-15T16:21:37.367Z,6.90
2023-06-15T16:24:05.017Z,6.90
2023-06-15T16:26:32.253Z,6.60
2023-06-15T16:29:00.339Z,6.30
2023-06-15T16:31:27.568Z,6.20
2023-06-15T16:33:54.801Z,6.30
2023-06-15T16:36:22.275Z,5.70
2023-06-15T16:38:49.442Z,6.10
2023-06-15T16:41:16.855Z,8.20
2023-06-15T16:43:44.090Z,5.10
2023-06-15T16:46:11.600Z,6.40
2023-06-15T16:48:38.856Z,5.40
2023-06-15T16:51:06.039Z,5.90
2023-06-15T16:53:33.161Z,6.70
2023-06-15T16:56:00.353Z,7.00
2023-06-15T16:58:27.577Z,6.90
2023-06-15T17:00:54.772Z,5.50
2023-06-15T17:03:22.347Z,6.50
2023-06-15T17:05:49.817Z,5.10
2023-06-15T17:08:18.471Z,4.70
2023-06-15T17:10:45.785Z,5.70
2023-06-15T17:13:12.998Z,5.50
2023-06-15T17:15:42.119Z,6.50
2023-06-15T17:18:09.671Z,5.40
2023-06-15T17:20:36.872Z,6.00
2023-06-15T17:23:04.027Z,5.30
2023-06-15T17:25:31.526Z,5.70
2023-06-15T17:27:58.667Z,6.10
2023-06-15T17:30:26.950Z,5.90
2023-06-15T17:32:54.122Z,6.30
2023-06-15T17:35:21.318Z,5.80
2023-06-15T17:37:48.427Z,4.70
2023-06-15T17:40:15.861Z,5.80
2023-06-15T17:42:43.324Z,6.00
2023-06-15T17:45:10.807Z,5.70
2023-06-15T17:47:38.045Z,7.80
2023-06-15T17:50:06.342Z,8.60
2023-06-15T17:52:35.657Z,7.00
2023-06-15T17:55:04.963Z,8.10
2023-06-15T17:57:32.162Z,6.80
2023-06-15T18:00:00.435Z,5.20
2023-06-15T18:02:27.640Z,8.50
2023-06-15T18:04:54.848Z,7.00
2023-06-15T18:07:21.986Z,7.30
2023-06-15T18:09:49.230Z,8.20
2023-06-15T18:12:16.465Z,7.10
2023-06-15T18:14:43.958Z,9.80
2023-06-15T18:17:11.151Z,7.20
2023-06-15T18:19:38.283Z,6.60
2023-06-15T18:22:05.431Z,6.30
2023-06-15T18:24:32.709Z,7.40
2023-06-15T18:27:00.077Z,6.20
2023-06-15T18:29:27.412Z,7.50
2023-06-15T18:31:54.589Z,9.50
2023-06-15T18:34:21.780Z,7.00
2023-06-15T18:36:48.913Z,7.10
2023-06-15T18:39:18.951Z,8.20
2023-06-15T18:41:46.393Z,7.30
2023-06-15T18:44:13.604Z,8.20
2023-06-15T18:46:40.824Z,9.50
2023-06-15T18:49:08.255Z,8.00
2023-06-15T18:51:35.460Z,6.20
2023-06-15T18:54:03.074Z,9.10
2023-06-15T18:56:30.308Z,6.10
2023-06-15T18:58:57.649Z,7.00
2023-06-15T19:01:24.889Z,7.50
2023-06-15T19:03:52.180Z,5.80
2023-06-15T19:06:19.358Z,6.80
2023-06-15T19:08:46.800Z,7.20
2023-06-15T19:11:14.006Z,5.10
2023-06-15T19:13:41.303Z,7.40
2023-06-15T19:16:08.644Z,8.10
2023-06-15T19:18:35.862Z,7.30
2023-06-15T19:21:05.665Z,9.50
2023-06-15T19:23:32.881Z,8.30
2023-06-15T19:26:00.972Z,7.40
2023-06-15T19:28:28.213Z,7.00
2023-06-15T19:30:55.455Z,7.70
2023-06-15T19:33:22.684Z,6.20
2023-06-15T19:35:51.788Z,7.00
2023-06-15T19:38:18.933Z,8.50
2023-06-15T19:40:46.251Z,7.50
2023-06-15T19:43:13.453Z,6.70
2023-06-15T19:45:40.710Z,9.70
2023-06-15T19:48:07.985Z,10.60
2023-06-15T19:50:35.308Z,8.30
2023-06-15T19:53:02.440Z,7.20
2023-06-15T19:55:29.861Z,7.40
2023-06-15T19:57:57.009Z,8.20
2023-06-15T20:00:24.142Z,8.60
2023-06-15T20:02:51.602Z,11.30
2023-06-15T20:05:18.993Z,9.40
2023-06-15T20:07:46.168Z,9.90
2023-06-15T20:10:13.325Z,8.90
2023-06-15T20:12:40.503Z,8.70
2023-06-15T20:15:08.004Z,8.70
2023-06-15T20:17:35.387Z,6.60
2023-06-15T20:20:02.866Z,8.20
2023-06-15T20:22:30.131Z,7.10
2023-06-15T20:24:57.695Z,8.00
2023-06-15T20:27:24.910Z,8.40
2023-06-15T20:29:52.040Z,7.80
2023-06-15T20:32:25.319Z,7.70
2023-06-15T20:34:52.576Z,9.00
2023-06-15T20:37:19.803Z,8.10
2023-06-15T20:39:47.011Z,9.00
2023-06-15T20:42:15.400Z,8.50
2023-06-15T20:44:42.738Z,10.00
2023-06-15T20:47:09.977Z,9.40
2023-06-15T20:49:37.263Z,10.00
2023-06-15T20:52:04.816Z,11.10
2023-06-15T20:54:31.924Z,10.20
2023-06-15T20:56:59.075Z,8.50
2023-06-15T20:59:26.233Z,8.80
2023-06-15T21:01:53.401Z,7.60
2023-06-15T21:04:20.590Z,7.90
2023-06-15T21:06:47.772Z,7.50
2023-06-15T21:09:14.969Z,8.70
2023-06-15T21:11:42.108Z,9.70
2023-06-15T21:14:09.326Z,7.90
2023-06-15T21:16:36.627Z,10.00
2023-06-15T21:19:03.771Z,8.40
2023-06-15T21:21:30.993Z,9.40
2023-06-15T21:23:58.140Z,8.10
2023-06-15T21:26:26.049Z,9.20
2023-06-15T21:28:53.257Z,8.40
2023-06-15T21:31:20.999Z,8.20
2023-06-15T21:33:48.304Z,8.30
2023-06-15T21:36:16.070Z,8.20
2023-06-15T21:38:43.175Z,9.00
2023-06-15T21:41:10.324Z,9.10
2023-06-15T21:43:39.225Z,10.70
2023-06-15T21:46:07.897Z,9.30
2023-06-15T21:48:35.153Z,9.20
2023-06-15T21:51:03.284Z,8.40
2023-06-15T21:53:30.598Z,8.60
2023-06-15T21:55:57.803Z,8.90
2023-06-15T21:58:25.004Z,9.90
2023-06-15T22:00:52.135Z,8.20
2023-06-15T22:03:19.412Z,8.00
2023-06-15T22:05:48.944Z,7.70
2023-06-15T22:08:16.805Z,9.10
2023-06-15T22:10:43.992Z,8.70
2023-06-15T22:13:15.550Z,8.80
2023-06-15T22:15:42.740Z,9.70
2023-06-15T22:18:10.588Z,9.60
2023-06-15T22:20:37.820Z,8.80
2023-06-15T22:23:05.268Z,9.00
2023-06-15T22:25:37.382Z,8.40
2023-06-15T22:28:07.448Z,8.60
2023-06-15T22:30:34.613Z,8.10
2023-06-15T22:33:01.852Z,8.90
2023-06-15T22:35:29.002Z,9.10
2023-06-15T22:37:56.502Z,9.00
2023-06-15T22:40:23.638Z,9.80
2023-06-15T22:42:51.016Z,8.90
2023-06-15T22:45:18.224Z,9.60
2023-06-15T22:47:45.872Z,9.10
2023-06-15T22:50:14.207Z,9.20
2023-06-15T22:52:42.547Z,11.00
2023-06-15T22:55:10.047Z,8.10
2023-06-15T22:57:37.204Z,10.80
2023-06-15T23:00:07.184Z,10.70
2023-06-15T23:02:34.393Z,9.60
2023-06-15T23:05:01.701Z,9.40
2023-06-15T23:07:30.308Z,7.90
2023-06-15T23:09:57.909Z,9.20
2023-06-15T23:12:25.962Z,9.80
2023-06-15T23:14:53.912Z,9.90
2023-06-15T23:17:22.043Z,9.20
2023-06-15T23:19:50.420Z,9.70
2023-06-15T23:22:23.782Z,9.00
2023-06-15T23:24:51.631Z,8.90
2023-06-15T23:27:20.173Z,9.10
2023-06-15T23:29:49.602Z,10.10
2023-06-15T23:32:17.306Z,8.40
2023-06-15T23:34:44.697Z,11.70
2023-06-15T23:37:11.805Z,9.50
2023-06-15T23:39:38.979Z,11.40
2023-06-15T23:42:06.481Z,12.30
2023-06-15T23:44:33.665Z,10.40
2023-06-15T23:47:00.954Z,10.60
2023-06-15T23:49:28.119Z,9.90
2023-06-15T23:51:55.412Z,9.60
2023-06-15T23:54:22.553Z,9.30
2023-06-15T23:56:49.734Z,10.60
2023-06-15T23:59:16.851Z,9.40
